Time,TemperatureF,DewpointF,PressureIn,WindDirection,WindDirectionDegrees,WindSpeedMPH,WindSpeedGustMPH,Humidity,HourlyPrecipIn,Conditions,Clouds,dailyrainin,SoftwareType,DateUTC
2013-03-02 00:01:00,36.9,31.0,30.01,NW,317,0.0,-999.0,80,-99.99,,,0.00,weatherlink.com 1.10,2013-03-02 05:01:00,
2013-03-02 00:16:00,36.9,31.0,30.01,NW,326,1.0,-999.0,80,-99.99,,,0.00,weatherlink.com 1.10,2013-03-02 05:16:00,
2013-03-02 00:31:00,36.8,31.0,30.01,WNW,283,1.0,-999.0,80,-99.99,,,0.00,weatherlink.com 1.10,2013-03-02 05:31:00,
2013-03-02 00:47:00,36.8,31.0,30.01,WNW,299,0.0,-999.0,80,-99.99,,,0.00,weatherlink.com 1.10,2013-03-02 05:47:00,
2013-03-02 01:02:00,36.6,31.0,30.01,WSW,243,1.0,-999.0,80,-99.99,,,0.00,weatherlink.com 1.10,2013-03-02 06:02:00,
2013-03-02 01:17:00,36.4,31.0,30.01,West,274,9.0,-999.0,80,-99.99,,,0.00,weatherlink.com 1.10,2013-03-02 06:17:00,
2013-03-02 01:32:00,36.2,31.0,30.01,NW,309,2.0,-999.0,81,-99.99,,,0.00,weatherlink.com 1.10,2013-03-02 06:32:00,
2013-03-02 01:47:00,36.0,31.0,30.01,West,281,2.0,-999.0,82,-99.99,,,0.00,weatherlink.com 1.10,2013-03-02 06:47:00,
2013-03-02 02:02:00,35.9,31.0,30.01,WSW,252,4.0,-999.0,83,-99.99,,,0.00,weatherlink.com 1.10,2013-03-02 07:02:00,
2013-03-02 02:17:00,35.8,31.0,30.01,NW,311,5.0,-999.0,84,-99.99,,,0.00,weatherlink.com 1.10,2013-03-02 07:17:00,
2013-03-02 02:32:00,35.5,31.0,30.00,WNW,294,5.0,-999.0,84,-99.99,,,0.00,weatherlink.com 1.10,2013-03-02 07:32:00,
2013-03-02 02:47:00,35.4,31.0,29.99,NW,316,4.0,-999.0,85,-99.99,,,0.00,weatherlink.com 1.10,2013-03-02 07:47:00,
2013-03-02 03:02:00,35.2,31.0,29.98,North,350,5.0,-999.0,85,-99.99,,,0.00,weatherlink.com 1.10,2013-03-02 08:02:00,
2013-03-02 03:17:00,35.1,31.0,29.98,West,275,7.0,-999.0,86,-99.99,,,0.00,weatherlink.com 1.10,2013-03-02 08:17:00,
2013-03-02 03:32:00,35.0,31.0,29.98,SW,235,6.0,-999.0,86,-99.99,,,0.00,weatherlink.com 1.10,2013-03-02 08:32:00,
2013-03-02 03:47:00,34.8,31.0,29.98,WNW,291,4.0,-999.0,86,-99.99,,,0.00,weatherlink.com 1.10,2013-03-02 08:47:00,
2013-03-02 04:02:00,34.6,31.0,29.98,South,189,4.0,-999.0,87,-99.99,,,0.00,weatherlink.com 1.10,2013-03-02 09:02:00,
2013-03-02 04:17:00,34.2,31.0,29.97,NNW,331,6.0,-999.0,87,-99.99,,,0.00,weatherlink.com 1.10,2013-03-02 09:17:00,
2013-03-02 04:32:00,34.0,31.0,29.97,NW,313,2.0,-999.0,88,-99.99,,,0.00,weatherlink.com 1.10,2013-03-02 09:32:00,
2013-03-02 04:47:00,33.7,31.0,29.97,NNW,333,5.0,-999.0,89,-99.99,,,0.00,weatherlink.com 1.10,2013-03-02 09:47:00,
2013-03-02 05:02:00,33.7,31.0,29.98,NW,306,4.0,-999.0,89,-99.99,,,0.00,weatherlink.com 1.10,2013-03-02 10:02:00,
2013-03-02 05:17:00,33.7,31.0,29.98,WNW,295,5.0,-999.0,89,-99.99,,,0.00,weatherlink.com 1.10,2013-03-02 10:17:00,
2013-03-02 05:32:00,33.7,31.0,29.98,NW,318,9.0,-999.0,89,-99.99,,,0.00,weatherlink.com 1.10,2013-03-02 10:32:00,
2013-03-02 05:47:00,33.7,31.0,29.98,WSW,254,0.0,-999.0,89,-99.99,,,0.00,weatherlink.com 1.10,2013-03-02 10:47:00,
2013-03-02 06:02:00,33.7,31.0,29.98,NNW,330,6.0,-999.0,89,-99.99,,,0.00,weatherlink.com 1.10,2013-03-02 11:02:00,
2013-03-02 06:17:00,33.7,31.0,29.98,NNW,328,2.0,-999.0,89,-99.99,,,0.00,weatherlink.com 1.10,2013-03-02 11:17:00,
2013-03-02 06:32:00,33.7,31.0,29.98,WNW,289,4.0,-999.0,89,-99.99,,,0.00,weatherlink.com 1.10,2013-03-02 11:32:00,
2013-03-02 06:47:00,33.7,31.0,29.98,NW,304,2.0,-999.0,89,-99.99,,,0.00,weatherlink.com 1.10,2013-03-02 11:47:00,
2013-03-02 07:02:00,33.7,31.0,29.98,WNW,297,8.0,-999.0,89,-99.99,,,0.00,weatherlink.com 1.10,2013-03-02 12:02:00,
2013-03-02 07:17:00,33.8,31.0,29.98,NNW,328,4.0,-999.0,88,-99.99,,,0.00,weatherlink.com 1.10,2013-03-02 12:17:00,
2013-03-02 07:32:00,33.9,31.0,29.99,WNW,299,2.0,-999.0,88,-99.99,,,0.00,weatherlink.com 1.10,2013-03-02 12:32:00,
2013-03-02 07:47:00,33.9,31.0,29.99,NNE,14,3.0,-999.0,88,-99.99,,,0.00,weatherlink.com 1.10,2013-03-02 12:47:00,
2013-03-02 08:02:00,33.9,31.0,29.99,WNW,298,2.0,-999.0,88,-99.99,,,0.00,weatherlink.com 1.10,2013-03-02 13:02:00,
2013-03-02 08:17:00,34.0,31.0,30.00,WNW,285,2.0,-999.0,88,-99.99,,,0.00,weatherlink.com 1.10,2013-03-02 13:17:00,
2013-03-02 08:32:00,34.3,31.0,30.00,NNW,333,2.0,-999.0,87,-99.99,,,0.00,weatherlink.com 1.10,2013-03-02 13:32:00,
2013-03-02 08:47:00,34.6,31.0,30.00,WSW,249,4.0,-999.0,87,-99.99,,,0.00,weatherlink.com 1.10,2013-03-02 13:47:00,
2013-03-02 09:02:00,34.8,31.0,30.01,North,3,3.0,-999.0,86,-99.99,,,0.00,weatherlink.com 1.10,2013-03-02 14:02:00,
2013-03-02 09:17:00,35.1,31.0,30.01,WNW,301,5.0,-999.0,85,-99.99,,,0.00,weatherlink.com 1.10,2013-03-02 14:17:00,
2013-03-02 09:32:00,35.2,31.0,30.01,WNW,301,8.0,-999.0,84,-99.99,,,0.00,weatherlink.com 1.10,2013-03-02 14:32:00,
2013-03-02 09:48:00,35.4,31.0,30.02,NNW,341,5.0,-999.0,83,-99.99,,,0.00,weatherlink.com 1.10,2013-03-02 14:48:00,
2013-03-02 10:02:00,35.6,30.0,30.02,WNW,288,12.0,-999.0,81,-99.99,,,0.00,weatherlink.com 1.10,2013-03-02 15:02:00,
2013-03-02 10:18:00,35.9,30.0,30.02,NW,306,6.0,-999.0,80,-99.99,,,0.00,weatherlink.com 1.10,2013-03-02 15:18:00,
2013-03-02 10:33:00,36.1,30.0,30.02,NNW,345,5.0,-999.0,79,-99.99,,,0.00,weatherlink.com 1.10,2013-03-02 15:33:00,
2013-03-02 10:48:00,37.2,31.0,30.02,WNW,287,7.0,-999.0,77,-99.99,,,0.00,weatherlink.com 1.10,2013-03-02 15:48:00,
2013-03-02 11:03:00,37.3,31.0,30.02,WSW,251,3.0,-999.0,77,-99.99,,,0.00,weatherlink.com 1.10,2013-03-02 16:03:00,
2013-03-02 11:18:00,36.9,31.0,30.02,NW,316,2.0,-999.0,78,-99.99,,,0.00,weatherlink.com 1.10,2013-03-02 16:18:00,
2013-03-02 11:33:00,36.8,31.0,30.02,WNW,299,11.0,-999.0,78,-99.99,,,0.00,weatherlink.com 1.10,2013-03-02 16:33:00,
2013-03-02 11:48:00,36.4,30.0,30.03,North,349,1.0,-999.0,79,-99.99,,,0.00,weatherlink.com 1.10,2013-03-02 16:48:00,
2013-03-02 12:03:00,36.2,30.0,30.03,West,261,1.0,-999.0,78,-99.99,,,0.00,weatherlink.com 1.10,2013-03-02 17:03:00,
2013-03-02 12:18:00,36.2,30.0,30.03,WNW,293,8.0,-999.0,77,-99.99,,,0.00,weatherlink.com 1.10,2013-03-02 17:18:00,
2013-03-02 12:33:00,37.0,30.0,30.02,WNW,298,11.0,-999.0,75,-99.99,,,0.00,weatherlink.com 1.10,2013-03-02 17:33:00,
2013-03-02 12:48:00,37.3,30.0,30.02,NNW,344,5.0,-999.0,75,-99.99,,,0.00,weatherlink.com 1.10,2013-03-02 17:48:00,
2013-03-02 13:03:00,38.0,30.0,30.02,NNW,327,10.0,-999.0,72,-99.99,,,0.00,weatherlink.com 1.10,2013-03-02 18:03:00,
2013-03-02 13:18:00,37.0,30.0,30.01,NW,325,12.0,-999.0,76,-99.99,,,0.00,weatherlink.com 1.10,2013-03-02 18:18:00,
2013-03-02 13:33:00,37.1,31.0,30.01,North,1,2.0,-999.0,77,-99.99,,,0.00,weatherlink.com 1.10,2013-03-02 18:33:00,
2013-03-02 13:48:00,37.6,29.0,30.00,NW,322,4.0,-999.0,70,-99.99,,,0.00,weatherlink.com 1.10,2013-03-02 18:48:00,
2013-03-02 14:03:00,37.9,29.0,30.01,NNW,328,1.0,-999.0,70,-99.99,,,0.00,weatherlink.com 1.10,2013-03-02 19:03:00,
2013-03-02 14:18:00,37.6,30.0,30.00,West,280,4.0,-999.0,74,-99.99,,,0.00,weatherlink.com 1.10,2013-03-02 19:18:00,
2013-03-02 14:33:00,37.9,29.0,30.00,NW,318,2.0,-999.0,69,-99.99,,,0.00,weatherlink.com 1.10,2013-03-02 19:33:00,
2013-03-02 14:48:00,37.5,28.0,30.00,West,276,5.0,-999.0,68,-99.99,,,0.00,weatherlink.com 1.10,2013-03-02 19:48:00,
2013-03-02 15:03:00,37.6,29.0,30.00,North,5,3.0,-999.0,70,-99.99,,,0.00,weatherlink.com 1.10,2013-03-02 20:03:00,
2013-03-02 15:18:00,36.6,29.0,30.00,North,1,7.0,-999.0,75,-99.99,,,0.00,weatherlink.com 1.10,2013-03-02 20:18:00,
2013-03-02 15:33:00,37.2,29.0,30.00,NNW,331,6.0,-999.0,73,-99.99,,,0.00,weatherlink.com 1.10,2013-03-02 20:33:00,
2013-03-02 15:48:00,36.2,30.0,30.00,WNW,286,2.0,-999.0,79,-99.99,,,0.00,weatherlink.com 1.10,2013-03-02 20:48:00,
2013-03-02 16:03:00,35.9,30.0,30.00,NW,309,2.0,-999.0,80,-99.99,,,0.00,weatherlink.com 1.10,2013-03-02 21:03:00,
2013-03-02 16:18:00,37.0,29.0,30.00,WNW,291,9.0,-999.0,73,-99.99,,,0.00,weatherlink.com 1.10,2013-03-02 21:18:00,
2013-03-02 16:33:00,37.2,29.0,30.00,WNW,291,2.0,-999.0,72,-99.99,,,0.00,weatherlink.com 1.10,2013-03-02 21:33:00,
2013-03-02 16:48:00,37.0,28.0,30.00,West,280,2.0,-999.0,71,-99.99,,,0.00,weatherlink.com 1.10,2013-03-02 21:48:00,
2013-03-02 17:03:00,36.9,28.0,30.01,NW,319,10.0,-999.0,71,-99.99,,,0.00,weatherlink.com 1.10,2013-03-02 22:03:00,
2013-03-02 17:18:00,36.7,28.0,30.01,NW,305,4.0,-999.0,72,-99.99,,,0.00,weatherlink.com 1.10,2013-03-02 22:18:00,
2013-03-02 17:33:00,36.5,28.0,30.02,WNW,286,5.0,-999.0,71,-99.99,,,0.00,weatherlink.com 1.10,2013-03-02 22:33:00,
2013-03-02 17:48:00,36.4,28.0,30.02,WNW,285,4.0,-999.0,72,-99.99,,,0.00,weatherlink.com 1.10,2013-03-02 22:48:00,
2013-03-02 18:03:00,36.4,28.0,30.02,WSW,251,0.0,-999.0,72,-99.99,,,0.00,weatherlink.com 1.10,2013-03-02 23:03:00,
2013-03-02 18:18:00,36.4,28.0,30.03,NW,316,10.0,-999.0,72,-99.99,,,0.00,weatherlink.com 1.10,2013-03-02 23:18:00,
2013-03-02 18:33:00,36.4,28.0,30.03,North,352,1.0,-999.0,72,-99.99,,,0.00,weatherlink.com 1.10,2013-03-02 23:33:00,
2013-03-02 18:48:00,36.4,28.0,30.03,NW,321,1.0,-999.0,72,-99.99,,,0.00,weatherlink.com 1.10,2013-03-02 23:48:00,
2013-03-02 19:03:00,36.4,28.0,30.03,WNW,291,8.0,-999.0,72,-99.99,,,0.00,weatherlink.com 1.10,2013-03-03 00:03:00,
2013-03-02 19:18:00,36.3,28.0,30.03,West,266,0.0,-999.0,73,-99.99,,,0.00,weatherlink.com 1.10,2013-03-03 00:18:00,
2013-03-02 19:33:00,36.1,28.0,30.03,NW,323,6.0,-999.0,73,-99.99,,,0.00,weatherlink.com 1.10,2013-03-03 00:33:00,
2013-03-02 19:48:00,36.0,28.0,30.04,North,351,5.0,-999.0,74,-99.99,,,0.00,weatherlink.com 1.10,2013-03-03 00:48:00,
2013-03-02 20:03:00,35.9,29.0,30.04,NNW,347,0.0,-999.0,75,-99.99,,,0.00,weatherlink.com 1.10,2013-03-03 01:03:00,
2013-03-02 20:18:00,35.9,28.0,30.04,North,3,2.0,-999.0,74,-99.99,,,0.00,weatherlink.com 1.10,2013-03-03 01:18:00,
2013-03-02 20:33:00,35.7,28.0,30.05,North,351,2.0,-999.0,74,-99.99,,,0.00,weatherlink.com 1.10,2013-03-03 01:33:00,
2013-03-02 20:48:00,35.5,28.0,30.05,NNW,337,5.0,-999.0,75,-99.99,,,0.00,weatherlink.com 1.10,2013-03-03 01:48:00,
2013-03-02 21:03:00,35.4,28.0,30.06,NNW,329,6.0,-999.0,75,-99.99,,,0.00,weatherlink.com 1.10,2013-03-03 02:03:00,
2013-03-02 21:18:00,35.3,28.0,30.06,NW,309,1.0,-999.0,74,-99.99,,,0.00,weatherlink.com 1.10,2013-03-03 02:18:00,
2013-03-02 21:33:00,35.2,28.0,30.06,NNW,348,5.0,-999.0,74,-99.99,,,0.00,weatherlink.com 1.10,2013-03-03 02:33:00,
2013-03-02 21:48:00,35.0,28.0,30.06,NNW,346,7.0,-999.0,74,-99.99,,,0.00,weatherlink.com 1.10,2013-03-03 02:48:00,
2013-03-02 22:03:00,34.9,27.0,30.06,North,355,5.0,-999.0,74,-99.99,,,0.00,weatherlink.com 1.10,2013-03-03 03:03:00,
2013-03-02 22:18:00,34.8,27.0,30.06,NW,312,9.0,-999.0,73,-99.99,,,0.00,weatherlink.com 1.10,2013-03-03 03:18:00,
2013-03-02 22:33:00,34.5,26.0,30.06,NNW,344,0.0,-999.0,72,-99.99,,,0.00,weatherlink.com 1.10,2013-03-03 03:33:00,
2013-03-02 22:48:00,34.2,26.0,30.06,West,266,3.0,-999.0,72,-99.99,,,0.00,weatherlink.com 1.10,2013-03-03 03:48:00,
2013-03-02 23:03:00,33.9,26.0,30.06,WNW,293,4.0,-999.0,73,-99.99,,,0.00,weatherlink.com 1.10,2013-03-03 04:03:00,
2013-03-02 23:18:00,33.4,26.0,30.06,NW,322,2.0,-999.0,74,-99.99,,,0.00,weatherlink.com 1.10,2013-03-03 04:18:00,
2013-03-02 23:33:00,33.2,26.0,30.06,NNW,348,4.0,-999.0,76,-99.99,,,0.00,weatherlink.com 1.10,2013-03-03 04:33:00,
2013-03-02 23:48:00,33.4,26.0,30.06,NW,314,5.0,-999.0,75,-99.99,,,0.00,weatherlink.com 1.10,2013-03-03 04:48:00,